Time;durP1;ratioP1;P1;durP2;ratioP2;P2;SDS_P1;SDS_P2;PMS_P1;PMS_P2;Temp;Humidity;BMP_temperature;BMP_pressure;BME280_temperature;BME280_humidity;BME280_pressure;Samples;Min_cycle;Max_cycle;Signal;HPM_P1;HPM_P2
2023/08/13 00:00:01;;;;;;;3.10;2.80;;;22.10;99.90;;;;;;933589;151;27515;-75
2023/08/13 00:02:27;;;;;;;2.90;2.67;;;22.10;99.90;;;;;;935116;150;27311;-75
2023/08/13 00:04:54;;;;;;;3.30;3.02;;;22.10;99.90;;;;;;935926;150;27411;-75
2023/08/13 00:07:21;;;;;;;2.87;2.67;;;22.10;99.90;;;;;;940148;149;27401;-75
2023/08/13 00:09:47;;;;;;;2.83;2.60;;;22.00;99.90;;;;;;935995;149;27378;-75
2023/08/13 00:12:14;;;;;;;3.70;2.70;;;22.00;99.90;;;;;;917452;152;27470;-75
2023/08/13 00:14:40;;;;;;;2.90;2.50;;;21.90;99.90;;;;;;940883;149;27256;-75
2023/08/13 00:17:08;;;;;;;2.67;2.47;;;21.90;99.90;;;;;;918624;152;27833;-75
2023/08/13 00:19:34;;;;;;;5.03;2.90;;;21.80;99.90;;;;;;926243;152;27423;-75
2023/08/13 00:22:00;;;;;;;2.80;2.60;;;21.80;99.90;;;;;;934915;150;27893;-75
2023/08/13 00:24:27;;;;;;;2.75;2.55;;;21.70;99.90;;;;;;935221;150;27340;-75
2023/08/13 00:26:53;;;;;;;2.98;2.67;;;21.70;99.90;;;;;;934758;149;27359;-75
2023/08/13 00:29:20;;;;;;;2.80;2.60;;;21.60;99.90;;;;;;934631;149;27407;-75
2023/08/13 00:31:47;;;;;;;3.10;2.80;;;21.60;99.90;;;;;;936325;149;27382;-75
2023/08/13 00:34:13;;;;;;;3.20;2.90;;;21.50;99.90;;;;;;935539;149;27271;-75
2023/08/13 00:36:40;;;;;;;3.42;2.52;;;21.50;99.90;;;;;;936609;149;27338;-75
2023/08/13 00:39:06;;;;;;;3.95;3.15;;;21.50;99.90;;;;;;935142;149;27298;-75
2023/08/13 00:41:33;;;;;;;3.50;2.45;;;21.50;99.90;;;;;;940494;149;27383;-75
2023/08/13 00:44:00;;;;;;;2.20;2.00;;;21.50;99.90;;;;;;941596;149;27332;-75
2023/08/13 00:46:26;;;;;;;2.65;2.42;;;21.60;99.90;;;;;;934709;150;27343;-75
2023/08/13 00:48:53;;;;;;;2.83;2.62;;;21.60;99.90;;;;;;934563;151;27351;-75
2023/08/13 00:51:22;;;;;;;2.77;2.22;;;21.60;99.90;;;;;;934928;149;27709;-75
2023/08/13 00:53:49;;;;;;;2.60;2.40;;;21.70;99.90;;;;;;914866;153;27385;-75
2023/08/13 00:56:15;;;;;;;2.60;2.10;;;21.70;99.90;;;;;;913968;152;27307;-75
2023/08/13 00:58:42;;;;;;;3.05;2.42;;;21.70;99.90;;;;;;932462;152;27439;-75
2023/08/13 01:01:08;;;;;;;3.10;2.80;;;21.70;99.90;;;;;;923438;151;27377;-75
2023/08/13 01:03:36;;;;;;;2.58;2.35;;;21.70;99.90;;;;;;925923;152;27396;-75
2023/08/13 01:06:03;;;;;;;2.77;2.30;;;21.60;99.90;;;;;;938249;151;27438;-75
2023/08/13 01:08:31;;;;;;;3.08;2.62;;;21.60;99.90;;;;;;936035;150;27555;-75
2023/08/13 01:11:09;;;;;;;2.85;2.65;;;21.60;99.90;;;;;;940600;149;27481;-75
2023/08/13 01:13:36;;;;;;;2.27;2.10;;;21.60;99.90;;;;;;931952;149;27680;-75
2023/08/13 01:16:02;;;;;;;2.72;2.52;;;21.50;99.90;;;;;;937544;149;27417;-75
2023/08/13 01:18:29;;;;;;;3.70;2.42;;;21.60;99.90;;;;;;936833;149;27240;-75
2023/08/13 01:20:56;;;;;;;3.77;2.75;;;21.50;99.90;;;;;;937548;149;27341;-75
2023/08/13 01:23:22;;;;;;;4.83;2.60;;;21.50;99.90;;;;;;938133;149;27729;-75
2023/08/13 01:25:49;;;;;;;3.17;2.77;;;21.50;99.90;;;;;;933426;150;27345;-75
2023/08/13 01:28:30;;;;;;;2.70;2.50;;;21.50;99.90;;;;;;932319;150;27384;-75
2023/08/13 01:30:59;;;;;;;4.42;2.95;;;21.40;99.90;;;;;;939007;149;27312;-75
2023/08/13 01:33:29;;;;;;;3.12;2.45;;;21.40;99.90;;;;;;934184;149;27361;-75
2023/08/13 01:35:56;;;;;;;3.62;2.22;;;21.40;99.90;;;;;;934405;150;27420;-75
2023/08/13 01:38:22;;;;;;;2.47;2.27;;;21.30;99.90;;;;;;935592;150;27337;-75
2023/08/13 01:40:48;;;;;;;2.40;2.20;;;21.30;99.90;;;;;;934651;149;27335;-75
2023/08/13 01:43:15;;;;;;;2.58;1.90;;;21.30;99.90;;;;;;935091;149;27695;-75
2023/08/13 01:45:42;;;;;;;2.60;2.40;;;21.20;99.90;;;;;;924048;152;27721;-75
2023/08/13 01:48:08;;;;;;;2.85;2.62;;;21.20;99.90;;;;;;936498;149;27467;-75
2023/08/13 01:50:35;;;;;;;3.08;2.40;;;21.20;99.90;;;;;;936812;149;27358;-76
2023/08/13 01:53:01;;;;;;;2.72;2.52;;;21.10;99.90;;;;;;937453;149;27432;-76
2023/08/13 01:55:28;;;;;;;3.60;2.55;;;21.10;99.90;;;;;;923760;152;27403;-76
2023/08/13 01:57:55;;;;;;;3.22;3.02;;;21.10;99.90;;;;;;936495;149;27396;-76
2023/08/13 02:00:21;;;;;;;2.80;2.60;;;21.00;99.90;;;;;;934524;149;27284;-76
2023/08/13 02:02:48;;;;;;;3.33;2.40;;;21.00;99.90;;;;;;955864;147;27439;-76
2023/08/13 02:05:14;;;;;;;3.12;2.52;;;21.00;99.90;;;;;;937681;150;27462;-76
2023/08/13 02:07:41;;;;;;;2.90;2.70;;;21.00;99.90;;;;;;939198;150;27639;-76
2023/08/13 02:10:08;;;;;;;3.45;2.75;;;20.90;99.90;;;;;;937927;150;27345;-75
2023/08/13 02:12:34;;;;;;;2.52;2.30;;;20.90;99.90;;;;;;943360;150;27395;-76
2023/08/13 02:15:01;;;;;;;2.72;2.52;;;20.90;99.90;;;;;;940432;150;27323;-76
2023/08/13 02:17:27;;;;;;;2.95;2.52;;;20.90;99.90;;;;;;934386;150;27481;-76
2023/08/13 02:19:54;;;;;;;2.75;2.55;;;20.80;99.90;;;;;;951920;148;28306;-76
2023/08/13 02:22:20;;;;;;;2.60;2.40;;;20.80;99.90;;;;;;937861;150;27697;-76
2023/08/13 02:24:47;;;;;;;2.95;2.70;;;20.80;99.90;;;;;;957874;147;27359;-76
2023/08/13 02:27:14;;;;;;;2.70;2.50;;;20.80;99.90;;;;;;956074;147;27330;-75
2023/08/13 02:29:40;;;;;;;2.70;2.50;;;20.80;99.90;;;;;;954523;147;27446;-76
2023/08/13 02:32:07;;;;;;;2.85;2.60;;;20.80;99.90;;;;;;955910;147;27415;-76
2023/08/13 02:34:33;;;;;;;2.75;2.55;;;20.80;99.90;;;;;;956286;147;27327;-76
2023/08/13 02:37:00;;;;;;;3.05;2.47;;;20.80;99.90;;;;;;941547;150;27241;-76
2023/08/13 02:39:27;;;;;;;4.40;2.60;;;20.80;99.90;;;;;;935824;150;27458;-76
2023/08/13 02:41:53;;;;;;;3.02;2.72;;;20.70;99.90;;;;;;942293;150;27363;-76
2023/08/13 02:44:20;;;;;;;2.98;2.77;;;20.80;99.90;;;;;;937443;151;27397;-76
2023/08/13 02:46:47;;;;;;;3.27;2.92;;;20.70;99.90;;;;;;941486;150;27430;-75
2023/08/13 02:49:13;;;;;;;3.85;2.98;;;20.70;99.90;;;;;;938178;150;27461;-76
2023/08/13 02:51:39;;;;;;;2.83;2.62;;;20.80;99.90;;;;;;955318;148;27438;-76
2023/08/13 02:54:06;;;;;;;5.65;3.00;;;20.80;99.90;;;;;;954203;148;27317;-76
2023/08/13 02:56:33;;;;;;;2.67;2.47;;;20.80;99.90;;;;;;952815;147;27435;-76
2023/08/13 02:58:59;;;;;;;2.87;2.65;;;20.90;99.90;;;;;;957045;147;27322;-76
2023/08/13 03:01:26;;;;;;;3.55;2.55;;;20.90;99.90;;;;;;959159;147;27350;-74
2023/08/13 03:03:53;;;;;;;3.00;2.70;;;20.90;99.90;;;;;;934810;149;27764;-74
2023/08/13 03:06:22;;;;;;;2.55;2.40;;;20.90;99.90;;;;;;939885;149;27330;-75
2023/08/13 03:08:49;;;;;;;3.75;2.40;;;21.00;99.90;;;;;;919415;153;27387;-75
2023/08/13 03:11:15;;;;;;;2.37;2.22;;;21.00;99.90;;;;;;934454;149;27330;-75
2023/08/13 03:13:42;;;;;;;2.55;2.30;;;21.00;99.90;;;;;;935250;149;27362;-74
2023/08/13 03:16:09;;;;;;;2.67;2.40;;;21.10;99.90;;;;;;924016;152;27364;-75
2023/08/13 03:18:35;;;;;;;2.50;2.30;;;21.10;99.90;;;;;;914652;153;27468;-74
2023/08/13 03:21:02;;;;;;;2.37;2.15;;;21.10;99.90;;;;;;941987;149;27474;-75
2023/08/13 03:23:29;;;;;;;4.90;2.58;;;21.10;99.90;;;;;;943145;149;27385;-75
2023/08/13 03:25:55;;;;;;;3.85;2.17;;;21.10;99.90;;;;;;939885;149;27392;-75
2023/08/13 03:28:21;;;;;;;4.10;2.60;;;21.10;99.90;;;;;;944547;149;27449;-74
2023/08/13 03:30:48;;;;;;;2.65;2.25;;;21.10;99.90;;;;;;940764;149;27286;-75
2023/08/13 03:33:15;;;;;;;4.15;2.98;;;21.00;99.90;;;;;;939341;149;27512;-74
2023/08/13 03:35:42;;;;;;;2.65;2.45;;;21.00;99.90;;;;;;937280;150;27377;-75
2023/08/13 03:38:08;;;;;;;2.90;2.67;;;21.00;99.90;;;;;;940018;150;27389;-75
2023/08/13 03:40:34;;;;;;;2.70;2.50;;;21.00;99.90;;;;;;937119;150;27348;-74
2023/08/13 03:43:01;;;;;;;2.83;2.62;;;20.90;99.90;;;;;;940380;149;27759;-75
2023/08/13 03:45:28;;;;;;;3.15;2.72;;;20.90;99.90;;;;;;938087;149;27391;-74
2023/08/13 03:47:54;;;;;;;2.42;2.22;;;20.90;99.90;;;;;;938481;149;27374;-74
2023/08/13 03:50:21;;;;;;;3.10;2.45;;;20.90;99.90;;;;;;940176;149;27330;-74
2023/08/13 03:52:47;;;;;;;2.77;2.58;;;20.90;99.90;;;;;;937570;149;27397;-74
2023/08/13 03:55:14;;;;;;;4.30;2.92;;;20.80;99.90;;;;;;918121;153;27349;-75
2023/08/13 03:57:41;;;;;;;3.27;2.98;;;20.80;99.90;;;;;;939428;150;27378;-75
2023/08/13 04:00:07;;;;;;;3.27;2.98;;;20.80;99.90;;;;;;934077;150;27398;-75
2023/08/13 04:02:34;;;;;;;3.72;3.00;;;20.80;99.90;;;;;;938875;148;27492;-75
2023/08/13 04:05:01;;;;;;;4.50;2.95;;;20.70;99.90;;;;;;949741;148;27414;-74
2023/08/13 04:07:27;;;;;;;4.53;3.20;;;20.70;99.90;;;;;;950381;148;27278;-75
2023/08/13 04:09:54;;;;;;;3.10;2.80;;;20.70;99.90;;;;;;932603;151;27546;-76
2023/08/13 04:12:20;;;;;;;3.42;3.12;;;20.70;99.90;;;;;;930158;151;27380;-76
2023/08/13 04:14:47;;;;;;;4.08;3.58;;;20.70;99.90;;;;;;956921;148;27279;-76
2023/08/13 04:17:13;;;;;;;3.58;3.10;;;20.60;99.90;;;;;;935845;151;27322;-76
2023/08/13 04:19:40;;;;;;;4.47;3.40;;;20.60;99.90;;;;;;931768;151;27480;-76
2023/08/13 04:22:06;;;;;;;3.25;2.98;;;20.70;99.90;;;;;;955743;148;27726;-76
2023/08/13 04:24:33;;;;;;;3.17;2.72;;;20.60;99.90;;;;;;936706;151;27317;-76
2023/08/13 04:27:00;;;;;;;3.90;3.10;;;20.60;99.90;;;;;;929439;150;27336;-76
2023/08/13 04:29:26;;;;;;;3.45;2.98;;;20.60;99.90;;;;;;938448;150;27333;-76
2023/08/13 04:31:53;;;;;;;3.30;3.00;;;20.70;99.90;;;;;;937848;150;27438;-76
2023/08/13 04:34:19;;;;;;;3.27;3.00;;;20.70;99.90;;;;;;948565;148;27373;-76
2023/08/13 04:36:46;;;;;;;3.22;2.65;;;20.60;99.90;;;;;;952998;148;27318;-76
2023/08/13 04:39:13;;;;;;;2.95;2.75;;;20.70;99.90;;;;;;954111;148;27369;-76
2023/08/13 04:41:39;;;;;;;3.40;3.17;;;20.70;99.90;;;;;;954495;148;27312;-76
2023/08/13 04:44:06;;;;;;;4.40;2.95;;;20.70;99.90;;;;;;952750;148;27352;-76
2023/08/13 04:46:32;;;;;;;3.98;3.25;;;20.70;99.90;;;;;;951182;148;27360;-76
2023/08/13 04:48:59;;;;;;;4.80;3.80;;;20.70;99.90;;;;;;951729;148;27340;-76
2023/08/13 04:51:26;;;;;;;3.55;3.30;;;20.80;99.90;;;;;;950734;148;27268;-76
2023/08/13 04:53:53;;;;;;;3.17;2.98;;;20.80;99.90;;;;;;952019;148;27376;-76
2023/08/13 04:56:19;;;;;;;3.72;3.42;;;20.80;99.90;;;;;;950973;148;27340;-76
2023/08/13 04:58:45;;;;;;;3.25;2.87;;;20.80;99.90;;;;;;953930;148;27338;-76
2023/08/13 05:01:12;;;;;;;3.25;2.95;;;20.90;99.90;;;;;;943473;151;27411;-76
2023/08/13 05:03:39;;;;;;;4.25;3.12;;;20.90;99.90;;;;;;935713;151;27373;-76
2023/08/13 05:06:05;;;;;;;3.25;2.95;;;20.90;99.90;;;;;;924911;150;27413;-76
2023/08/13 05:08:32;;;;;;;8.30;3.30;;;21.00;99.90;;;;;;934328;150;27400;-76
2023/08/13 05:10:58;;;;;;;7.08;2.80;;;21.00;99.90;;;;;;935295;149;27312;-76
2023/08/13 05:13:25;;;;;;;3.17;2.95;;;21.00;99.90;;;;;;934260;149;27403;-76
2023/08/13 05:15:51;;;;;;;2.87;2.62;;;21.10;99.90;;;;;;935733;150;27306;-76
2023/08/13 05:18:18;;;;;;;4.62;3.10;;;21.10;99.90;;;;;;932544;150;27491;-76
2023/08/13 05:20:45;;;;;;;2.90;2.60;;;21.20;99.90;;;;;;938352;151;27398;-74
2023/08/13 05:23:11;;;;;;;3.08;2.87;;;21.20;99.90;;;;;;936354;149;27462;-75
2023/08/13 05:25:41;;;;;;;3.25;2.95;;;21.30;99.90;;;;;;934385;149;27327;-75
2023/08/13 05:28:07;;;;;;;5.08;3.60;;;21.30;99.90;;;;;;918105;153;27523;-75
2023/08/13 05:30:35;;;;;;;6.25;3.83;;;21.30;99.90;;;;;;935134;149;27317;-74
2023/08/13 05:33:01;;;;;;;3.40;2.62;;;21.40;99.90;;;;;;935255;149;27318;-75
2023/08/13 05:35:27;;;;;;;2.92;2.72;;;21.50;99.90;;;;;;936568;150;27417;-75
2023/08/13 05:37:54;;;;;;;2.98;2.67;;;21.60;99.90;;;;;;936729;149;27406;-74
2023/08/13 05:40:20;;;;;;;3.00;2.70;;;21.70;99.90;;;;;;938831;149;27356;-74
2023/08/13 05:42:47;;;;;;;3.00;2.80;;;21.80;99.90;;;;;;923615;152;27381;-74
2023/08/13 05:45:13;;;;;;;3.05;2.85;;;21.90;99.90;;;;;;920907;152;27351;-74
2023/08/13 05:47:41;;;;;;;3.20;2.95;;;22.00;99.90;;;;;;934611;151;27297;-74
2023/08/13 05:50:07;;;;;;;2.87;2.65;;;22.10;99.90;;;;;;934633;149;27293;-75
2023/08/13 05:52:33;;;;;;;3.35;2.90;;;22.20;99.90;;;;;;934913;150;27384;-75
2023/08/13 05:55:00;;;;;;;4.70;2.98;;;22.20;99.90;;;;;;934757;149;27295;-74
2023/08/13 05:57:26;;;;;;;3.17;2.77;;;22.30;99.90;;;;;;934264;149;27426;-74
2023/08/13 05:59:53;;;;;;;2.83;2.62;;;22.40;99.90;;;;;;934768;149;27416;-75
2023/08/13 06:02:20;;;;;;;3.60;2.95;;;22.40;99.90;;;;;;916085;153;27545;-75
2023/08/13 06:04:46;;;;;;;3.12;2.60;;;22.50;99.90;;;;;;916838;150;27459;-74
2023/08/13 06:07:13;;;;;;;2.83;2.58;;;22.50;99.90;;;;;;940089;150;27339;-75
2023/08/13 06:09:39;;;;;;;3.05;2.35;;;22.50;99.90;;;;;;937981;150;27377;-74
2023/08/13 06:12:06;;;;;;;2.33;2.12;;;22.60;99.90;;;;;;939057;150;27365;-75
2023/08/13 06:14:33;;;;;;;3.12;2.75;;;22.60;99.90;;;;;;938106;150;28096;-75
2023/08/13 06:17:00;;;;;;;3.02;2.50;;;22.60;99.90;;;;;;937600;150;27364;-74
2023/08/13 06:19:26;;;;;;;2.77;2.35;;;22.70;99.90;;;;;;937648;150;28500;-74
2023/08/13 06:21:53;;;;;;;3.52;2.60;;;22.70;99.90;;;;;;936721;150;27452;-75
2023/08/13 06:24:19;;;;;;;2.87;2.67;;;22.80;99.90;;;;;;937209;150;27471;-75
2023/08/13 06:26:46;;;;;;;3.00;2.72;;;22.80;99.90;;;;;;940158;150;27446;-75
2023/08/13 06:29:12;;;;;;;3.08;2.42;;;22.90;99.90;;;;;;938776;150;27463;-75
2023/08/13 06:31:39;;;;;;;3.47;2.47;;;22.90;99.90;;;;;;938868;149;27433;-74
2023/08/13 06:34:06;;;;;;;2.60;2.40;;;23.00;99.90;;;;;;937083;149;27386;-75
2023/08/13 06:36:32;;;;;;;2.67;2.47;;;23.10;99.90;;;;;;935510;149;27277;-75
2023/08/13 06:38:59;;;;;;;2.67;2.47;;;23.20;99.90;;;;;;938922;149;27361;-75
2023/08/13 06:41:26;;;;;;;2.75;2.47;;;23.20;99.90;;;;;;938986;149;28375;-75
2023/08/13 06:43:52;;;;;;;2.20;2.10;;;23.30;99.90;;;;;;938765;149;27355;-75
2023/08/13 06:46:18;;;;;;;3.47;2.00;;;23.50;99.90;;;;;;938056;150;27434;-75
2023/08/13 06:48:45;;;;;;;2.77;2.50;;;23.50;99.90;;;;;;940180;150;27378;-76
2023/08/13 06:51:12;;;;;;;2.47;2.27;;;23.60;99.90;;;;;;938570;150;27890;-75
2023/08/13 06:53:38;;;;;;;4.03;2.20;;;23.70;99.90;;;;;;937864;150;27806;-75
2023/08/13 06:56:05;;;;;;;2.15;2.05;;;23.80;99.90;;;;;;940109;149;27302;-75
2023/08/13 06:58:31;;;;;;;2.22;2.02;;;23.90;99.90;;;;;;917598;153;27309;-75
2023/08/13 07:00:58;;;;;;;3.45;2.70;;;24.10;99.90;;;;;;943586;149;27349;-75
2023/08/13 07:03:25;;;;;;;3.35;2.22;;;24.10;99.90;;;;;;942832;149;27373;-74
2023/08/13 07:05:51;;;;;;;2.58;2.37;;;24.30;99.90;;;;;;939761;149;27360;-75
2023/08/13 07:08:18;;;;;;;2.00;1.90;;;24.50;99.90;;;;;;917425;151;27529;-75
2023/08/13 07:10:44;;;;;;;2.98;2.47;;;24.60;99.90;;;;;;940667;149;27367;-75
2023/08/13 07:13:11;;;;;;;3.12;2.02;;;24.80;99.90;;;;;;926669;151;27354;-74
2023/08/13 07:15:38;;;;;;;1.85;1.67;;;25.10;99.90;;;;;;937286;149;27297;-75
2023/08/13 07:18:04;;;;;;;2.30;1.90;;;25.40;99.90;;;;;;920320;152;27289;-76
2023/08/13 07:20:31;;;;;;;2.25;1.80;;;25.60;99.90;;;;;;933450;150;27424;-75
2023/08/13 07:23:00;;;;;;;1.60;1.50;;;25.90;99.90;;;;;;932872;150;27386;-76
2023/08/13 07:25:24;;;;;;;2.62;1.85;;;26.20;99.90;;;;;;931694;149;27424;-75
2023/08/13 07:27:51;;;;;;;1.80;1.70;;;26.50;99.90;;;;;;937029;149;27348;-74
2023/08/13 07:30:18;;;;;;;1.62;1.52;;;26.90;99.90;;;;;;941829;148;27306;-74
2023/08/13 07:32:44;;;;;;;1.77;1.55;;;27.20;99.90;;;;;;927272;150;27368;-75
2023/08/13 07:35:10;;;;;;;2.58;1.70;;;27.60;99.90;;;;;;925074;151;27366;-74
2023/08/13 07:37:38;;;;;;;2.45;1.75;;;28.00;99.90;;;;;;920324;151;27844;-74
2023/08/13 07:40:07;;;;;;;1.50;1.40;;;28.40;99.90;;;;;;920610;152;27341;-74
2023/08/13 07:42:30;;;;;;;1.70;1.60;;;28.80;99.90;;;;;;932281;150;27416;-74
2023/08/13 07:44:57;;;;;;;2.00;1.80;;;29.00;99.90;;;;;;933602;150;27368;-74
2023/08/13 07:47:23;;;;;;;1.30;1.20;;;29.30;99.90;;;;;;938773;149;27351;-74
2023/08/13 07:49:50;;;;;;;1.60;1.50;;;29.50;99.90;;;;;;922378;151;27394;-75
2023/08/13 07:52:17;;;;;;;2.35;1.40;;;29.60;99.90;;;;;;939387;149;27307;-74
2023/08/13 07:54:43;;;;;;;1.57;1.47;;;29.80;99.30;;;;;;937332;150;27380;-75
2023/08/13 07:57:10;;;;;;;1.60;1.50;;;30.00;98.70;;;;;;937392;150;27442;-74
2023/08/13 07:59:36;;;;;;;2.05;1.50;;;30.20;98.10;;;;;;936463;150;27386;-74
2023/08/13 08:02:03;;;;;;;1.70;1.60;;;30.40;97.10;;;;;;935242;149;27433;-74
2023/08/13 08:04:29;;;;;;;1.35;1.32;;;30.50;96.40;;;;;;936458;150;27377;-75
2023/08/13 08:06:56;;;;;;;1.30;1.25;;;30.80;96.30;;;;;;933144;151;27357;-74
2023/08/13 08:09:23;;;;;;;1.65;1.52;;;31.00;95.60;;;;;;930234;152;27405;-74
2023/08/13 08:11:49;;;;;;;1.77;1.45;;;31.20;94.60;;;;;;939863;150;27421;-74
2023/08/13 08:14:16;;;;;;;1.57;1.47;;;31.40;93.00;;;;;;931788;151;27323;-74
2023/08/13 08:16:42;;;;;;;1.40;1.40;;;31.60;91.80;;;;;;927722;152;27381;-75
2023/08/13 08:19:09;;;;;;;1.70;1.60;;;31.80;91.60;;;;;;928430;152;27473;-74
2023/08/13 08:21:37;;;;;;;1.42;1.32;;;32.00;91.00;;;;;;929846;152;27369;-74
2023/08/13 08:24:02;;;;;;;1.82;1.72;;;32.30;91.40;;;;;;929261;152;27422;-74
2023/08/13 08:26:29;;;;;;;1.45;1.25;;;32.60;91.40;;;;;;931308;152;26315;-75
2023/08/13 08:28:55;;;;;;;1.55;1.45;;;33.00;89.80;;;;;;931875;152;27415;-75
2023/08/13 08:31:22;;;;;;;1.45;1.30;;;33.50;88.30;;;;;;929973;152;26294;-75
2023/08/13 08:33:48;;;;;;;1.57;1.27;;;34.10;88.10;;;;;;930686;152;26334;-74
2023/08/13 08:36:15;;;;;;;1.45;1.35;;;34.70;87.70;;;;;;937421;150;26280;-74
2023/08/13 08:38:42;;;;;;;1.65;1.40;;;35.40;85.10;;;;;;935976;152;26811;-75
2023/08/13 08:41:08;;;;;;;1.30;1.20;;;36.10;80.20;;;;;;933773;151;26292;-74
2023/08/13 08:43:35;;;;;;;2.45;1.30;;;36.60;77.30;;;;;;931662;152;26274;-74
2023/08/13 08:46:01;;;;;;;1.40;1.30;;;37.20;74.60;;;;;;937456;150;26211;-74
2023/08/13 08:48:28;;;;;;;2.95;1.32;;;37.70;70.60;;;;;;922136;152;26216;-75
2023/08/13 08:50:55;;;;;;;1.25;1.17;;;38.20;67.50;;;;;;916908;152;26315;-75
2023/08/13 08:53:21;;;;;;;1.17;1.07;;;38.60;65.20;;;;;;936235;151;26263;-75
2023/08/13 08:55:48;;;;;;;1.40;1.30;;;39.00;63.40;;;;;;926079;152;26903;-75
2023/08/13 08:58:14;;;;;;;0.95;0.95;;;39.30;62.70;;;;;;922131;153;26274;-75
2023/08/13 09:00:41;;;;;;;1.07;1.00;;;39.70;61.70;;;;;;925155;152;26222;-75
2023/08/13 09:03:08;;;;;;;2.00;1.10;;;40.00;59.90;;;;;;925879;152;26296;-75
2023/08/13 09:05:34;;;;;;;1.95;1.30;;;40.20;58.60;;;;;;928552;151;26325;-75
2023/08/13 09:08:01;;;;;;;1.30;1.20;;;40.40;57.10;;;;;;938750;150;26378;-75
2023/08/13 09:10:27;;;;;;;1.45;1.27;;;40.40;56.20;;;;;;923041;152;26318;-75
2023/08/13 09:12:54;;;;;;;1.22;1.02;;;40.40;55.50;;;;;;923357;152;26334;-75
2023/08/13 09:15:20;;;;;;;1.55;1.40;;;40.40;55.30;;;;;;939137;150;26686;-76
2023/08/13 09:17:47;;;;;;;1.20;1.10;;;40.40;54.90;;;;;;918929;154;26234;-75
2023/08/13 09:20:20;;;;;;;1.22;1.12;;;40.40;54.10;;;;;;929675;152;26165;-75
2023/08/13 09:22:50;;;;;;;1.85;1.30;;;40.40;53.50;;;;;;929697;152;26245;-76
2023/08/13 09:25:16;;;;;;;1.70;1.50;;;40.30;53.60;;;;;;939307;150;26286;-75
2023/08/13 09:27:42;;;;;;;1.40;1.30;;;40.30;53.50;;;;;;938757;150;26357;-75
2023/08/13 09:30:12;;;;;;;2.10;1.15;;;40.30;53.10;;;;;;937451;150;26363;-75
2023/08/13 09:32:39;;;;;;;1.35;1.12;;;40.30;52.40;;;;;;929955;151;26333;-75
2023/08/13 09:35:05;;;;;;;2.00;1.20;;;40.30;51.90;;;;;;937999;150;26333;-75
2023/08/13 09:37:32;;;;;;;1.10;1.00;;;40.30;51.60;;;;;;938867;150;26249;-75
2023/08/13 09:39:59;;;;;;;1.30;1.20;;;40.30;51.20;;;;;;932544;151;28182;-75
2023/08/13 09:42:25;;;;;;;2.08;1.00;;;40.20;51.10;;;;;;932974;151;26325;-76
2023/08/13 09:44:55;;;;;;;1.47;0.98;;;40.10;50.90;;;;;;930280;151;26353;-76
2023/08/13 09:47:18;;;;;;;3.87;1.25;;;39.90;50.50;;;;;;932211;151;26230;-75
2023/08/13 09:49:45;;;;;;;3.27;1.30;;;39.70;49.90;;;;;;931490;151;26409;-75
2023/08/13 09:52:12;;;;;;;2.20;1.27;;;39.40;50.00;;;;;;933258;151;26233;-75
2023/08/13 09:54:47;;;;;;;1.62;1.20;;;39.20;50.00;;;;;;943638;150;26147;-76
2023/08/13 09:57:17;;;;;;;1.37;1.27;;;38.90;49.90;;;;;;925402;153;26279;-76
2023/08/13 09:59:47;;;;;;;1.15;0.90;;;38.60;49.60;;;;;;928796;152;26303;-76
2023/08/13 10:02:13;;;;;;;2.00;1.10;;;38.40;49.60;;;;;;928886;152;26309;-77
2023/08/13 10:04:40;;;;;;;1.20;1.05;;;38.10;49.40;;;;;;938359;150;26257;-76
2023/08/13 10:07:06;;;;;;;2.05;0.95;;;38.00;49.40;;;;;;943269;148;26388;-76
2023/08/13 10:09:33;;;;;;;2.00;1.40;;;37.80;49.30;;;;;;946586;148;27950;-76
2023/08/13 10:11:59;;;;;;;1.30;1.20;;;37.60;49.00;;;;;;949851;148;26360;-76
2023/08/13 10:14:26;;;;;;;2.08;0.98;;;37.40;48.90;;;;;;935139;151;26380;-78
2023/08/13 10:16:53;;;;;;;1.72;1.37;;;37.30;49.10;;;;;;945146;148;26304;-78
2023/08/13 10:19:19;;;;;;;3.10;1.22;;;37.20;49.20;;;;;;930677;151;26241;-77
2023/08/13 10:21:55;;;;;;;1.05;1.02;;;37.00;49.00;;;;;;938111;151;26275;-77
2023/08/13 10:24:22;;;;;;;1.60;1.20;;;37.00;49.00;;;;;;947783;148;26378;-77
2023/08/13 10:26:48;;;;;;;1.27;1.00;;;36.80;48.90;;;;;;953227;148;26348;-76
2023/08/13 10:29:20;;;;;;;1.80;1.15;;;36.80;49.00;;;;;;943662;149;26291;-76
2023/08/13 10:31:49;;;;;;;1.35;1.05;;;36.70;49.00;;;;;;952689;148;26279;-76
2023/08/13 10:34:14;;;;;;;1.85;1.40;;;36.60;49.00;;;;;;953082;148;26204;-76
2023/08/13 10:36:55;;;;;;;1.20;1.10;;;36.60;48.90;;;;;;948773;148;26401;-76
2023/08/13 10:39:33;;;;;;;1.80;1.15;;;36.50;48.80;;;;;;934915;151;26296;-76
2023/08/13 10:42:03;;;;;;;1.55;1.02;;;36.40;48.60;;;;;;947358;148;27452;-77
2023/08/13 10:44:29;;;;;;;1.42;1.10;;;36.30;48.90;;;;;;944736;148;26261;-77
2023/08/13 10:46:56;;;;;;;2.40;1.40;;;36.20;48.70;;;;;;931326;151;27429;-76
2023/08/13 10:49:22;;;;;;;2.47;1.57;;;36.10;48.70;;;;;;932002;151;26205;-77
2023/08/13 10:51:49;;;;;;;2.20;1.50;;;36.10;48.80;;;;;;953371;148;26271;-77
2023/08/13 10:54:16;;;;;;;2.55;1.42;;;36.00;48.60;;;;;;953514;148;26242;-76
2023/08/13 10:56:45;;;;;;;1.40;1.27;;;35.90;48.30;;;;;;954192;148;26319;-76
2023/08/13 10:59:12;;;;;;;2.55;1.40;;;35.70;48.20;;;;;;947761;148;27344;-76
2023/08/13 11:02:12;;;;;;;1.00;0.95;;;35.60;48.10;;;;;;948535;148;26276;-78
2023/08/13 11:04:38;;;;;;;1.35;1.00;;;35.50;47.80;;;;;;947204;148;27772;-76
2023/08/13 11:07:05;;;;;;;1.82;1.15;;;35.40;47.90;;;;;;928194;151;26411;-76
2023/08/13 11:09:32;;;;;;;1.57;1.47;;;35.30;48.00;;;;;;933290;150;26417;-74
2023/08/13 11:11:58;;;;;;;1.57;1.12;;;35.20;47.70;;;;;;934752;150;26257;-75
2023/08/13 11:14:25;;;;;;;1.30;1.20;;;35.00;47.90;;;;;;938726;149;27304;-75
2023/08/13 11:16:51;;;;;;;2.37;1.50;;;35.00;47.80;;;;;;936220;149;26263;-74
2023/08/13 11:19:18;;;;;;;1.92;1.20;;;34.90;48.10;;;;;;936327;149;26318;-74
2023/08/13 11:21:44;;;;;;;1.32;1.20;;;34.80;48.10;;;;;;933037;150;27341;-77
2023/08/13 11:24:11;;;;;;;1.05;0.98;;;34.70;48.20;;;;;;933025;149;27338;-74
2023/08/13 11:26:39;;;;;;;1.95;1.40;;;34.70;48.10;;;;;;934724;149;27346;-77
2023/08/13 11:29:04;;;;;;;2.92;1.22;;;34.60;47.80;;;;;;935481;149;27355;-74
2023/08/13 11:31:31;;;;;;;3.65;1.27;;;34.60;47.40;;;;;;935998;149;27436;-74
2023/08/13 11:33:57;;;;;;;1.62;1.00;;;34.60;47.70;;;;;;938646;149;27384;-76
2023/08/13 11:36:24;;;;;;;1.60;1.40;;;34.50;47.80;;;;;;934983;149;26322;-75
2023/08/13 11:38:51;;;;;;;2.98;1.12;;;34.40;47.50;;;;;;935166;149;27462;-74
2023/08/13 11:41:17;;;;;;;1.30;1.12;;;34.30;47.50;;;;;;936238;149;27360;-75
2023/08/13 11:43:44;;;;;;;1.82;1.40;;;34.20;47.50;;;;;;935029;149;27401;-74
2023/08/13 11:46:10;;;;;;;1.47;1.35;;;34.10;47.60;;;;;;933308;149;27332;-76
2023/08/13 11:48:37;;;;;;;1.50;1.40;;;34.00;47.80;;;;;;934051;150;27741;-75
2023/08/13 11:51:12;;;;;;;1.60;1.50;;;34.00;47.90;;;;;;934966;149;27467;-74
2023/08/13 11:53:42;;;;;;;1.70;1.35;;;33.90;47.90;;;;;;932185;149;27434;-74
2023/08/13 11:56:08;;;;;;;1.70;1.22;;;33.80;48.00;;;;;;918344;152;27348;-74
2023/08/13 11:58:35;;;;;;;1.27;1.20;;;33.80;48.10;;;;;;934941;149;27342;-76
2023/08/13 12:01:01;;;;;;;1.45;1.35;;;33.80;48.30;;;;;;939245;149;27457;-75
2023/08/13 12:03:28;;;;;;;1.05;1.05;;;33.70;48.10;;;;;;922749;152;27364;-76
2023/08/13 12:05:54;;;;;;;2.10;1.45;;;33.70;48.50;;;;;;916923;153;27323;-75
2023/08/13 12:08:21;;;;;;;1.62;1.52;;;33.60;48.30;;;;;;916296;153;27419;-74
2023/08/13 12:10:48;;;;;;;2.00;1.30;;;33.60;48.20;;;;;;932834;150;27338;-76
2023/08/13 12:13:14;;;;;;;1.75;1.20;;;33.60;48.20;;;;;;935430;149;27441;-75
2023/08/13 12:15:41;;;;;;;1.52;1.20;;;33.60;48.10;;;;;;925514;152;27417;-75
2023/08/13 12:18:08;;;;;;;1.50;1.10;;;33.50;48.20;;;;;;934449;150;27491;-75
2023/08/13 12:20:34;;;;;;;1.65;1.20;;;33.50;48.30;;;;;;939356;149;27311;-76
2023/08/13 12:23:01;;;;;;;1.47;1.30;;;33.50;48.50;;;;;;924115;150;27381;-75
2023/08/13 12:25:29;;;;;;;2.20;1.50;;;33.40;47.90;;;;;;918951;153;27358;-74
2023/08/13 12:27:54;;;;;;;2.65;1.30;;;33.40;48.60;;;;;;943392;149;27328;-74
2023/08/13 12:30:20;;;;;;;1.65;1.30;;;33.30;48.60;;;;;;943573;149;27344;-75
2023/08/13 12:32:47;;;;;;;1.72;1.40;;;33.30;48.60;;;;;;942339;149;27412;-76
2023/08/13 12:35:14;;;;;;;1.85;1.40;;;33.30;48.60;;;;;;943040;149;27492;-74
2023/08/13 12:37:40;;;;;;;1.98;1.17;;;33.30;48.60;;;;;;939455;149;27464;-76
2023/08/13 12:40:10;;;;;;;1.47;1.02;;;33.30;48.50;;;;;;940953;149;27321;-74
2023/08/13 12:42:33;;;;;;;1.20;1.10;;;33.20;48.30;;;;;;941663;149;27339;-77
2023/08/13 12:45:00;;;;;;;6.37;1.70;;;33.20;48.30;;;;;;941089;149;27390;-76